To NAV CANADA Home Page Login to a new session Search on AWWS site Feedback and Comments Disclaimer Vers la page française équivalente Tips FAQ What's new on the site To the Forecasts and Observations / NOTAM section To "File a Flight Plan" website Publications and other links Update of the User's profile FIC Telephone Numbers My Weather Data Folder Route Weather Data Regional Weather Data Local Weather Data To the Forecasts and Observations / NOTAM section
Request Generated 02/23/2017 at 20:46:18 UTC . Weather information available at that time is displayed.

METAR/TAF

THUNDER BAY/ON    (show WxCam)

METAR CYQT 232000Z 31010G15KT 20SM SCT043 00/M09 A2988 RMK SC4
SLP130=
METAR CYQT 231900Z 31013G21KT 20SM SCT035 M00/M09 A2987 RMK SC3
SLP128=
SPECI CYQT 231819Z 29014G20KT 220V340 20SM SCT039 M00/M08 A2988 RMK
SC3 WSHFT 1812 SLP131=
METAR CYQT 231800Z 31010KT 280V360 20SM SCT038 M01/M09 A2989 RMK SC4
SLP133=

TAF CYQT 231941Z 2320/2408 30010G20KT P6SM SCT040 TEMPO 2320/2408
BKN040
BECMG 2400/2402 33006KT
RMK NXT FCST BY 240200Z=
Your time UTC time
Weather data provided by Environment Canada and NAV CANADA